Time;durP1;ratioP1;P1;durP2;ratioP2;P2;SDS_P1;SDS_P2;PMS_P1;PMS_P2;Temp;Humidity;BMP_temperature;BMP_pressure;BME280_temperature;BME280_humidity;BME280_pressure;Samples;Min_cycle;Max_cycle;Signal;HPM_P1;HPM_P2
2022/09/03 00:02:35;;;;;;;14.45;4.38;;;25.30;99.90;;;;;;5011166;28;20026;-72
2022/09/03 00:05:36;;;;;;;11.40;4.20;;;25.20;99.90;;;;;;5010930;28;20042;-72
2022/09/03 00:08:33;;;;;;;10.82;3.70;;;25.20;99.90;;;;;;5011110;28;20359;-72
2022/09/03 00:11:05;;;;;;;12.05;4.07;;;25.10;99.90;;;;;;5010842;28;20040;-74
2022/09/03 00:13:57;;;;;;;11.90;3.88;;;25.10;99.90;;;;;;5010596;28;20128;-73
2022/09/03 00:16:28;;;;;;;11.45;4.95;;;25.20;99.90;;;;;;5010419;28;20385;-73
2022/09/03 00:19:01;;;;;;;11.45;4.50;;;25.10;99.90;;;;;;5010581;28;20059;-74
2022/09/03 00:21:40;;;;;;;13.25;4.22;;;25.20;99.90;;;;;;5010237;28;20085;-73
2022/09/03 00:24:10;;;;;;;10.63;4.22;;;25.20;99.90;;;;;;5010479;28;20030;-73
2022/09/03 00:26:39;;;;;;;14.85;4.68;;;25.20;99.90;;;;;;5010381;28;20041;-73
2022/09/03 00:29:16;;;;;;;11.50;3.55;;;25.30;99.90;;;;;;5009782;28;20045;-73
2022/09/03 00:31:47;;;;;;;11.55;3.38;;;25.30;99.90;;;;;;5010373;28;20125;-73
2022/09/03 00:34:22;;;;;;;8.82;3.35;;;25.30;99.90;;;;;;5010168;28;20486;-73
2022/09/03 00:36:49;;;;;;;12.65;3.88;;;25.30;99.90;;;;;;5012298;28;20363;-73
2022/09/03 00:39:17;;;;;;;12.63;3.67;;;25.30;99.90;;;;;;5012067;28;20041;-73
2022/09/03 00:41:56;;;;;;;10.50;3.80;;;25.30;99.90;;;;;;5011887;28;20037;-73
2022/09/03 00:44:49;;;;;;;23.15;4.13;;;25.10;99.90;;;;;;5012221;28;20433;-73
2022/09/03 00:47:45;;;;;;;13.50;3.92;;;25.00;99.90;;;;;;5011787;28;20032;-73
2022/09/03 00:50:42;;;;;;;9.38;3.60;;;24.80;99.90;;;;;;5012243;28;20097;-73
2022/09/03 00:53:12;;;;;;;8.15;2.90;;;24.80;99.90;;;;;;5012023;28;20022;-73
2022/09/03 00:55:55;;;;;;;8.75;2.92;;;24.60;99.90;;;;;;5012028;28;20116;-73
2022/09/03 00:58:41;;;;;;;6.15;2.72;;;24.70;99.90;;;;;;5012288;28;20447;-73
2022/09/03 01:01:22;;;;;;;6.50;2.50;;;24.60;99.90;;;;;;5011436;28;20093;-73
2022/09/03 01:04:06;;;;;;;4.75;2.78;;;24.50;99.90;;;;;;5011951;28;20022;-73
2022/09/03 01:07:13;;;;;;;6.07;2.67;;;24.50;99.90;;;;;;5011516;28;20091;-73
2022/09/03 01:10:03;;;;;;;4.93;2.50;;;24.40;99.90;;;;;;5029009;28;20056;-73
2022/09/03 01:12:46;;;;;;;6.45;2.83;;;24.40;99.90;;;;;;5012133;28;20042;-73
2022/09/03 01:15:35;;;;;;;5.47;2.30;;;24.50;99.90;;;;;;5011599;28;20033;-73
2022/09/03 01:18:54;;;;;;;6.05;2.42;;;24.50;99.90;;;;;;5011729;28;20117;-73
2022/09/03 01:21:42;;;;;;;6.78;2.50;;;24.50;99.90;;;;;;5028696;28;20037;-73
2022/09/03 01:24:28;;;;;;;5.47;2.40;;;24.50;99.90;;;;;;5029107;28;20029;-73
2022/09/03 01:27:14;;;;;;;5.63;2.45;;;24.50;99.90;;;;;;5028839;28;20037;-73
2022/09/03 01:30:06;;;;;;;4.53;2.65;;;24.50;99.90;;;;;;5028637;28;20060;-73
2022/09/03 01:32:48;;;;;;;10.00;2.28;;;24.60;99.90;;;;;;5024520;28;20156;-73
2022/09/03 01:35:41;;;;;;;5.95;2.25;;;24.70;99.90;;;;;;5029104;28;20405;-73
2022/09/03 01:38:33;;;;;;;6.00;2.22;;;24.70;99.90;;;;;;5012176;28;20216;-73
2022/09/03 01:44:47;;;;;;;7.85;2.50;;;24.70;99.90;;;;;;5028646;28;20394;-73
2022/09/03 01:47:30;;;;;;;8.13;2.47;;;24.80;99.90;;;;;;5028871;28;20033;-73
2022/09/03 01:50:02;;;;;;;6.07;2.30;;;24.70;99.90;;;;;;5028900;28;20025;-73
2022/09/03 01:52:53;;;;;;;6.15;2.20;;;24.70;99.90;;;;;;5017609;28;20305;-73
2022/09/03 01:55:59;;;;;;;7.00;2.38;;;24.70;99.90;;;;;;5011363;28;20038;-73
2022/09/03 01:58:43;;;;;;;6.07;2.42;;;24.80;99.90;;;;;;5011319;28;20030;-73
2022/09/03 02:01:21;;;;;;;8.43;2.40;;;24.80;99.90;;;;;;5011117;28;20091;-73
2022/09/03 02:03:49;;;;;;;5.15;2.30;;;24.90;99.90;;;;;;5010840;28;20033;-73
2022/09/03 02:06:18;;;;;;;5.57;2.72;;;25.00;99.90;;;;;;5010752;28;20415;-73
2022/09/03 02:08:44;;;;;;;5.65;2.08;;;25.00;99.90;;;;;;5009422;28;20026;-73
2022/09/03 02:11:10;;;;;;;4.60;2.50;;;25.00;99.90;;;;;;5010880;28;20066;-73
2022/09/03 02:13:41;;;;;;;6.88;2.53;;;25.00;99.90;;;;;;5013402;28;20458;-73
2022/09/03 02:16:15;;;;;;;6.80;2.58;;;24.90;99.90;;;;;;5015216;28;20033;-73
2022/09/03 02:18:45;;;;;;;11.88;2.47;;;24.90;99.90;;;;;;5014595;28;20100;-73
2022/09/03 02:21:18;;;;;;;4.85;2.15;;;25.00;99.90;;;;;;5014934;28;20180;-73
2022/09/03 02:23:45;;;;;;;5.63;2.17;;;25.00;99.90;;;;;;5014650;28;20045;-73
2022/09/03 02:26:13;;;;;;;;;;;25.10;99.90;;;;;;5015097;28;20037;-73
2022/09/03 02:28:40;;;;;;;6.47;2.22;;;25.10;99.90;;;;;;5024967;28;19928;-73
2022/09/03 02:31:06;;;;;;;;;;;25.10;99.90;;;;;;5034458;28;20401;-73
2022/09/03 02:33:34;;;;;;;;;;;25.10;99.90;;;;;;5034555;28;19909;-73
2022/09/03 02:36:02;;;;;;;5.05;2.40;;;25.20;99.90;;;;;;5034206;28;19916;-73
2022/09/03 02:38:28;;;;;;;6.22;2.50;;;25.20;99.90;;;;;;5033954;28;20037;-73
2022/09/03 02:40:54;;;;;;;5.68;2.30;;;25.10;99.90;;;;;;5033883;28;20087;-73
2022/09/03 02:43:41;;;;;;;7.10;2.38;;;25.10;99.90;;;;;;5034152;28;20060;-73
2022/09/03 02:46:11;;;;;;;7.30;2.50;;;25.00;99.90;;;;;;5034146;28;20036;-73
2022/09/03 02:48:37;;;;;;;6.35;2.80;;;25.10;99.90;;;;;;5034045;28;20025;-73
2022/09/03 02:51:04;;;;;;;9.95;2.80;;;25.00;99.90;;;;;;5033506;28;20356;-73
2022/09/03 02:53:30;;;;;;;7.85;2.70;;;25.00;99.90;;;;;;5034008;28;20037;-73
2022/09/03 02:55:57;;;;;;;;;;;25.00;99.90;;;;;;5034592;28;20424;-73
2022/09/03 02:58:23;;;;;;;7.18;2.60;;;25.00;99.90;;;;;;5033350;28;20018;-73
2022/09/03 03:01:10;;;;;;;10.55;2.72;;;25.00;99.90;;;;;;5033497;28;20025;-73
2022/09/03 03:03:37;;;;;;;7.85;2.83;;;25.00;99.90;;;;;;5033362;28;20041;-73
2022/09/03 03:06:05;;;;;;;7.35;2.33;;;25.00;99.90;;;;;;5033422;28;20025;-73
2022/09/03 03:08:33;;;;;;;6.22;2.53;;;25.00;99.90;;;;;;5033496;28;20051;-73
2022/09/03 03:11:00;;;;;;;6.57;2.47;;;25.10;99.90;;;;;;5033634;28;20490;-73
2022/09/03 03:13:27;;;;;;;10.05;2.85;;;25.10;99.90;;;;;;5033545;28;20390;-73
2022/09/03 03:15:58;;;;;;;6.65;2.67;;;25.00;99.90;;;;;;5033317;28;20057;-73
2022/09/03 03:18:24;;;;;;;7.13;2.35;;;25.10;99.90;;;;;;5033972;28;20044;-73
2022/09/03 03:20:50;;;;;;;6.65;2.38;;;25.10;99.90;;;;;;5033702;28;20354;-73
2022/09/03 03:23:16;;;;;;;6.93;2.35;;;25.00;99.90;;;;;;5033638;28;20032;-73
2022/09/03 03:25:43;;;;;;;10.55;2.60;;;25.00;99.90;;;;;;5033061;28;20030;-73
2022/09/03 03:28:09;;;;;;;7.03;2.47;;;24.90;99.90;;;;;;5033634;28;20446;-73
2022/09/03 03:30:38;;;;;;;6.00;2.28;;;24.90;99.90;;;;;;5033846;28;20139;-73
2022/09/03 03:33:09;;;;;;;6.57;2.63;;;25.00;99.90;;;;;;5033799;28;20017;-74
2022/09/03 03:35:36;;;;;;;9.80;2.63;;;25.00;99.90;;;;;;5034116;28;20117;-73
2022/09/03 03:38:03;;;;;;;7.13;2.80;;;24.90;99.90;;;;;;5033784;28;20029;-73
2022/09/03 03:40:30;;;;;;;6.93;2.67;;;24.90;99.90;;;;;;5033918;28;20032;-73
2022/09/03 03:42:57;;;;;;;6.43;2.40;;;24.80;99.90;;;;;;5033588;28;20355;-73
2022/09/03 03:45:23;;;;;;;8.50;2.60;;;24.80;99.90;;;;;;5033608;28;20470;-73
2022/09/03 03:47:49;;;;;;;8.32;2.67;;;24.80;99.90;;;;;;5034035;28;20026;-73
2022/09/03 03:50:16;;;;;;;7.15;2.75;;;24.80;99.90;;;;;;5033436;28;20025;-73
2022/09/03 03:52:42;;;;;;;6.72;2.47;;;24.80;99.90;;;;;;5033482;28;20029;-73
2022/09/03 03:55:08;;;;;;;;;;;24.70;99.90;;;;;;5033671;28;20044;-73
2022/09/03 03:57:35;;;;;;;6.13;2.50;;;24.70;99.90;;;;;;5033126;28;19909;-73
2022/09/03 04:00:01;;;;;;;5.05;2.50;;;24.60;99.90;;;;;;5033688;28;20068;-74
2022/09/03 04:02:27;;;;;;;8.13;2.65;;;24.60;99.90;;;;;;5033381;28;20060;-73
2022/09/03 04:04:53;;;;;;;6.97;2.75;;;24.60;99.90;;;;;;5033153;28;20098;-73
2022/09/03 04:07:19;;;;;;;10.43;2.70;;;24.60;99.90;;;;;;5033527;28;20433;-73
2022/09/03 04:09:46;;;;;;;8.48;2.70;;;24.60;99.90;;;;;;5033631;28;20021;-73
2022/09/03 04:12:13;;;;;;;6.38;2.42;;;24.70;99.90;;;;;;5033048;28;20030;-74
2022/09/03 04:14:40;;;;;;;10.65;2.88;;;24.70;99.90;;;;;;5033303;28;20041;-73
2022/09/03 04:17:06;;;;;;;11.10;2.90;;;24.70;99.90;;;;;;5032393;28;20032;-73
2022/09/03 04:19:32;;;;;;;16.27;2.80;;;24.70;99.90;;;;;;5032913;28;20119;-73
2022/09/03 04:21:58;;;;;;;9.80;2.67;;;24.70;99.90;;;;;;5034732;28;20549;-73
2022/09/03 04:24:24;;;;;;;6.90;2.83;;;24.80;99.90;;;;;;5033087;28;20389;-73
2022/09/03 04:26:52;;;;;;;7.60;2.35;;;24.70;99.90;;;;;;5034279;28;20029;-73
2022/09/03 04:29:20;;;;;;;8.55;2.63;;;24.80;99.90;;;;;;5033785;28;20115;-73
2022/09/03 04:34:31;;;;;;;9.18;2.58;;;24.90;99.90;;;;;;5034181;28;20055;-73
2022/09/03 04:36:57;;;;;;;13.70;3.00;;;24.80;99.90;;;;;;5031488;28;20017;-73
2022/09/03 04:39:24;;;;;;;;;;;24.90;99.90;;;;;;5034553;28;20032;-73
2022/09/03 04:41:50;;;;;;;7.80;2.50;;;24.80;99.90;;;;;;5034585;28;19909;-73
2022/09/03 04:44:16;;;;;;;7.57;2.35;;;24.80;99.90;;;;;;5034324;28;20390;-73
2022/09/03 04:46:46;;;;;;;9.10;2.75;;;24.80;99.90;;;;;;5034240;28;20402;-73
2022/09/03 04:49:12;;;;;;;9.40;2.70;;;24.70;99.90;;;;;;5033979;28;20033;-73
2022/09/03 04:51:38;;;;;;;7.80;2.70;;;24.70;99.90;;;;;;5033924;28;20466;-73
2022/09/03 04:54:04;;;;;;;9.88;3.00;;;24.80;99.90;;;;;;5033733;28;20469;-73
2022/09/03 04:56:33;;;;;;;8.65;2.67;;;24.80;99.90;;;;;;5034382;28;20057;-73
2022/09/03 04:59:02;;;;;;;9.30;2.80;;;24.80;99.90;;;;;;5034075;28;20025;-73
2022/09/03 05:01:31;;;;;;;11.80;2.80;;;24.90;99.90;;;;;;5033748;28;20382;-73
2022/09/03 05:03:58;;;;;;;8.80;3.03;;;24.90;99.90;;;;;;5033924;28;20087;-73
2022/09/03 05:06:26;;;;;;;7.05;2.85;;;24.90;99.90;;;;;;5033589;28;20025;-73
2022/09/03 05:08:54;;;;;;;8.52;2.88;;;25.00;99.90;;;;;;5033965;28;20539;-73
2022/09/03 05:11:20;;;;;;;10.57;3.13;;;24.90;99.90;;;;;;5033573;28;20071;-73
2022/09/03 05:13:47;;;;;;;;;;;25.00;99.90;;;;;;5033679;28;20443;-73
2022/09/03 05:16:14;;;;;;;7.80;2.90;;;25.00;99.90;;;;;;5032941;28;19940;-73
2022/09/03 05:18:41;;;;;;;6.57;2.72;;;25.10;99.90;;;;;;5032896;28;20032;-73
2022/09/03 05:21:15;;;;;;;9.10;2.65;;;25.10;99.90;;;;;;5032819;28;20033;-73
2022/09/03 05:23:43;;;;;;;6.78;3.00;;;25.40;99.90;;;;;;5033318;28;20024;-73
2022/09/03 05:26:15;;;;;;;8.73;2.70;;;25.80;99.90;;;;;;5032881;28;20112;-73
2022/09/03 05:28:42;;;;;;;6.80;2.70;;;26.40;99.90;;;;;;5032947;28;20056;-73
2022/09/03 05:31:15;;;;;;;7.80;2.70;;;26.90;99.90;;;;;;5032752;28;20025;-73
2022/09/03 05:33:47;;;;;;;9.18;2.83;;;27.50;99.90;;;;;;5033118;28;20377;-73
2022/09/03 05:36:24;;;;;;;10.18;2.90;;;28.40;99.90;;;;;;5031359;28;20474;-73
2022/09/03 05:38:55;;;;;;;6.82;2.65;;;28.90;99.90;;;;;;5032834;28;20028;-73
2022/09/03 05:41:22;;;;;;;11.82;2.33;;;29.40;99.90;;;;;;5032906;28;20033;-73
2022/09/03 05:43:57;;;;;;;9.73;2.50;;;29.80;99.90;;;;;;5032473;28;20394;-73
2022/09/03 05:46:30;;;;;;;9.50;2.25;;;30.50;99.90;;;;;;5032836;28;20112;-74
2022/09/03 05:49:00;;;;;;;10.63;2.42;;;31.30;99.90;;;;;;5031652;28;20084;-73
2022/09/03 05:51:27;;;;;;;9.45;2.20;;;32.20;99.90;;;;;;5031688;28;20025;-73
2022/09/03 05:53:54;;;;;;;6.20;2.10;;;32.30;99.90;;;;;;5031905;28;20087;-73
2022/09/03 05:56:22;;;;;;;6.60;2.05;;;32.20;99.90;;;;;;5030256;28;20040;-74
2022/09/03 05:58:54;;;;;;;9.38;2.30;;;33.00;99.90;;;;;;5031826;28;20485;-74
2022/09/03 06:01:32;;;;;;;7.95;2.33;;;33.50;99.90;;;;;;5031574;28;20136;-73
2022/09/03 06:04:05;;;;;;;8.43;2.25;;;32.70;99.90;;;;;;5031926;28;20523;-74
2022/09/03 06:06:34;;;;;;;8.50;2.30;;;33.10;99.90;;;;;;5031653;28;20033;-73
2022/09/03 06:09:03;;;;;;;7.97;2.00;;;32.10;99.90;;;;;;5031338;28;20033;-73
2022/09/03 06:11:31;;;;;;;6.78;2.20;;;31.20;99.90;;;;;;5029203;28;20094;-73
2022/09/03 06:14:03;;;;;;;9.30;2.90;;;30.60;99.90;;;;;;5030686;28;20032;-74
2022/09/03 06:16:31;;;;;;;10.43;2.83;;;30.70;99.90;;;;;;5031625;28;20531;-73
2022/09/03 06:18:58;;;;;;;7.68;2.92;;;30.40;99.90;;;;;;5032535;28;20343;-73
2022/09/03 06:21:24;;;;;;;8.15;2.50;;;30.30;99.90;;;;;;5031815;28;20017;-73
2022/09/03 06:23:51;;;;;;;7.70;2.70;;;29.80;99.90;;;;;;5032108;28;20037;-73
2022/09/03 06:26:19;;;;;;;9.88;2.50;;;29.50;99.90;;;;;;5032189;28;20033;-73
2022/09/03 06:28:47;;;;;;;9.68;2.60;;;30.10;99.90;;;;;;5031831;28;20080;-73
2022/09/03 06:31:16;;;;;;;11.10;2.70;;;30.60;99.90;;;;;;5031724;28;20017;-73
2022/09/03 06:33:43;;;;;;;10.00;2.17;;;31.40;99.90;;;;;;5032017;28;20029;-73
2022/09/03 06:36:16;;;;;;;12.57;3.05;;;31.80;99.90;;;;;;5032268;28;20042;-73
2022/09/03 06:38:43;;;;;;;10.60;2.70;;;31.10;99.90;;;;;;5031906;28;20410;-73
2022/09/03 06:41:23;;;;;;;9.00;2.50;;;30.60;99.90;;;;;;5030758;28;20033;-74
2022/09/03 06:43:52;;;;;;;8.30;2.25;;;30.70;99.90;;;;;;5031674;28;20421;-73
2022/09/03 06:46:21;;;;;;;11.23;2.70;;;31.40;99.90;;;;;;5031983;28;20029;-73
2022/09/03 06:48:49;;;;;;;6.93;2.63;;;32.20;99.90;;;;;;5031542;28;20025;-73
2022/09/03 06:51:21;;;;;;;8.90;2.50;;;32.70;99.90;;;;;;5031670;28;20390;-74
2022/09/03 06:53:50;;;;;;;10.18;2.40;;;33.00;99.90;;;;;;5031595;28;20029;-74
2022/09/03 06:56:25;;;;;;;10.00;2.15;;;34.00;99.90;;;;;;5031599;28;20045;-74
2022/09/03 06:58:54;;;;;;;12.45;2.20;;;35.20;99.90;;;;;;5031978;28;20030;-74
2022/09/03 07:01:27;;;;;;;7.88;2.42;;;35.40;99.90;;;;;;5035556;28;20492;-74
2022/09/03 07:03:55;;;;;;;12.63;2.50;;;33.40;99.90;;;;;;5035278;28;20362;-73
2022/09/03 07:06:22;;;;;;;13.32;2.40;;;33.20;99.90;;;;;;5035402;28;20025;-74
2022/09/03 07:08:48;;;;;;;10.40;2.10;;;34.10;99.90;;;;;;5035561;28;20485;-74
2022/09/03 07:11:18;;;;;;;8.75;2.28;;;34.60;99.90;;;;;;5034974;28;20057;-74
2022/09/03 07:13:50;;;;;;;11.40;2.55;;;34.10;99.90;;;;;;5034269;28;20048;-74
2022/09/03 07:16:17;;;;;;;11.07;2.47;;;33.70;99.90;;;;;;5035044;28;20026;-74
2022/09/03 07:18:44;;;;;;;7.95;2.22;;;34.20;99.90;;;;;;5034795;28;20061;-74
2022/09/03 07:21:15;;;;;;;12.35;2.75;;;34.60;99.90;;;;;;5035048;28;20037;-74
2022/09/03 07:23:43;;;;;;;8.50;2.25;;;35.00;99.90;;;;;;5034770;28;20097;-74
2022/09/03 07:26:15;;;;;;;7.18;1.95;;;35.10;99.90;;;;;;5034894;28;20057;-74
2022/09/03 07:28:44;;;;;;;10.10;2.83;;;34.60;99.90;;;;;;5034525;28;20120;-74
2022/09/03 07:31:14;;;;;;;10.13;2.60;;;34.20;99.90;;;;;;5034634;28;20089;-74
2022/09/03 07:33:41;;;;;;;9.68;2.75;;;34.40;99.90;;;;;;5034314;28;20510;-74
2022/09/03 07:36:09;;;;;;;10.90;2.83;;;34.10;99.90;;;;;;5034796;28;20442;-74
2022/09/03 07:38:36;;;;;;;6.70;2.35;;;33.90;99.90;;;;;;5034278;28;20022;-74
2022/09/03 07:41:05;;;;;;;11.23;2.35;;;33.50;99.90;;;;;;5034623;28;20079;-74
2022/09/03 07:43:38;;;;;;;9.65;2.40;;;33.30;99.90;;;;;;5034180;28;20025;-74
2022/09/03 07:46:05;;;;;;;13.10;2.53;;;33.10;99.90;;;;;;5034241;28;20235;-74
2022/09/03 07:48:32;;;;;;;12.07;2.60;;;33.30;99.90;;;;;;5034199;28;20036;-73
2022/09/03 07:51:00;;;;;;;12.88;2.47;;;33.30;99.90;;;;;;5033659;28;20167;-74
2022/09/03 07:53:27;;;;;;;9.77;2.38;;;32.80;99.90;;;;;;5031928;28;20079;-74
2022/09/03 07:56:00;;;;;;;11.50;2.80;;;32.70;99.90;;;;;;5032063;28;20063;-74
2022/09/03 07:58:29;;;;;;;12.80;2.83;;;32.80;99.90;;;;;;5033842;28;20032;-74
2022/09/03 08:00:56;;;;;;;8.25;2.38;;;33.00;99.90;;;;;;5033461;28;20033;-74
2022/09/03 08:03:22;;;;;;;8.60;2.40;;;33.00;99.90;;;;;;5033389;28;20017;-74
2022/09/03 08:05:48;;;;;;;;;;;32.70;99.90;;;;;;5033810;28;20039;-74
2022/09/03 08:08:14;;;;;;;7.05;2.40;;;33.10;99.90;;;;;;5033396;28;19904;-74
2022/09/03 08:10:40;;;;;;;8.55;2.35;;;33.40;99.90;;;;;;5033173;28;20029;-73
2022/09/03 08:13:07;;;;;;;10.02;2.08;;;33.50;99.90;;;;;;5033000;28;20026;-73
2022/09/03 08:15:35;;;;;;;8.95;2.22;;;33.30;99.90;;;;;;5033183;28;20069;-74
2022/09/03 08:18:01;;;;;;;8.20;2.03;;;33.30;99.90;;;;;;5034449;28;20032;-74
2022/09/03 08:20:27;;;;;;;;;;;33.40;99.90;;;;;;5034421;28;20093;-74
2022/09/03 08:23:02;;;;;;;12.48;2.28;;;33.50;99.90;;;;;;5033829;28;19905;-74
2022/09/03 08:25:28;;;;;;;9.70;2.15;;;33.70;99.90;;;;;;5034102;28;20036;-74
2022/09/03 08:27:57;;;;;;;6.88;2.10;;;33.70;99.90;;;;;;5033571;28;20051;-74
2022/09/03 08:30:25;;;;;;;12.35;2.10;;;33.70;99.90;;;;;;5034305;28;20037;-74
2022/09/03 08:32:51;;;;;;;11.48;2.00;;;33.50;99.90;;;;;;5033700;28;20028;-73
2022/09/03 08:35:17;;;;;;;;;;;33.40;99.90;;;;;;5034165;28;20038;-74
2022/09/03 08:37:43;;;;;;;12.73;2.20;;;33.10;99.90;;;;;;5033905;28;20269;-74
2022/09/03 08:40:09;;;;;;;;;;;33.20;99.90;;;;;;5034590;28;20021;-74
2022/09/03 08:43:08;;;;;;;7.80;2.25;;;33.40;99.90;;;;;;5033703;28;19905;-74
2022/09/03 08:45:37;;;;;;;10.45;2.30;;;33.50;99.90;;;;;;5030723;28;20042;-74
2022/09/03 08:48:13;;;;;;;9.95;1.88;;;32.90;99.90;;;;;;5033523;28;20026;-73
2022/09/03 08:50:44;;;;;;;8.07;2.17;;;32.80;99.90;;;;;;5034030;28;20022;-74
2022/09/03 08:53:22;;;;;;;10.70;2.45;;;33.00;99.90;;;;;;5031558;28;20029;-74
2022/09/03 08:55:56;;;;;;;11.60;2.80;;;33.00;99.90;;;;;;5032977;28;20042;-73
2022/09/03 08:58:26;;;;;;;7.35;2.40;;;33.00;99.90;;;;;;5033085;28;20036;-74
2022/09/03 09:01:11;;;;;;;9.60;2.00;;;33.10;99.90;;;;;;5032985;28;20026;-74
2022/09/03 09:03:42;;;;;;;;;;;33.20;99.90;;;;;;5033742;28;20155;-74
2022/09/03 09:06:28;;;;;;;9.48;1.85;;;33.10;99.90;;;;;;5032799;28;19992;-74
2022/09/03 09:09:19;;;;;;;6.45;1.90;;;32.80;99.90;;;;;;5032714;28;20041;-74
2022/09/03 09:12:15;;;;;;;14.00;2.65;;;32.70;99.90;;;;;;5033251;28;20410;-74
2022/09/03 09:14:45;;;;;;;8.82;2.33;;;32.80;99.90;;;;;;5031032;28;20379;-74
2022/09/03 09:17:34;;;;;;;9.57;2.38;;;32.80;99.90;;;;;;5032671;28;20025;-73
2022/09/03 09:20:21;;;;;;;13.70;2.10;;;32.70;99.90;;;;;;5032746;28;20025;-74
2022/09/03 09:22:55;;;;;;;10.23;2.20;;;32.80;99.90;;;;;;5032107;28;20072;-74
2022/09/03 09:25:25;;;;;;;8.93;2.10;;;32.80;99.90;;;;;;5032852;28;20022;-74
2022/09/03 09:28:07;;;;;;;9.25;2.60;;;32.70;99.90;;;;;;5032474;28;20128;-73
2022/09/03 09:30:34;;;;;;;13.32;2.63;;;32.80;99.90;;;;;;5032694;28;20473;-73
2022/09/03 09:33:00;;;;;;;10.02;2.25;;;32.80;99.90;;;;;;5032544;28;20038;-73
2022/09/03 09:35:26;;;;;;;7.47;2.15;;;32.70;99.90;;;;;;5030861;28;20041;-77
2022/09/03 09:37:53;;;;;;;;;;;32.80;99.90;;;;;;5032854;28;20481;-73
2022/09/03 09:40:32;;;;;;;6.72;1.90;;;32.80;99.90;;;;;;5032305;28;20004;-73
2022/09/03 09:43:10;;;;;;;9.45;2.42;;;32.80;99.90;;;;;;5030962;28;20025;-73
2022/09/03 09:45:42;;;;;;;7.65;1.90;;;32.60;99.90;;;;;;5032116;28;20072;-73
2022/09/03 09:48:29;;;;;;;8.25;2.10;;;32.70;99.90;;;;;;5032072;28;20018;-73
2022/09/03 09:51:10;;;;;;;10.18;2.35;;;32.90;99.90;;;;;;5032607;28;20362;-73
2022/09/03 09:53:36;;;;;;;7.00;2.10;;;32.60;99.90;;;;;;5032449;28;20182;-73
2022/09/03 09:56:02;;;;;;;10.38;2.60;;;32.20;99.90;;;;;;5032028;28;20036;-73
2022/09/03 09:58:31;;;;;;;9.05;2.10;;;32.00;99.90;;;;;;5032155;28;20018;-73
2022/09/03 10:01:17;;;;;;;7.40;2.00;;;31.90;99.90;;;;;;5031908;28;20112;-73
2022/09/03 10:03:57;;;;;;;8.48;2.22;;;32.10;99.90;;;;;;5032222;28;20040;-73
2022/09/03 10:09:18;;;;;;;7.50;1.85;;;32.30;99.90;;;;;;5032547;28;20083;-73
2022/09/03 10:11:49;;;;;;;7.95;2.15;;;32.40;99.90;;;;;;5032298;28;20474;-73
2022/09/03 10:14:26;;;;;;;17.92;2.35;;;32.40;99.90;;;;;;5030546;28;20124;-74
2022/09/03 10:17:09;;;;;;;10.32;2.20;;;32.40;99.90;;;;;;5032358;28;20457;-73
2022/09/03 10:20:26;;;;;;;5.45;1.80;;;32.10;99.90;;;;;;5031846;28;20022;-73
2022/09/03 10:23:14;;;;;;;13.20;2.35;;;31.80;99.90;;;;;;5032042;28;20033;-73
2022/09/03 10:25:52;;;;;;;11.25;2.28;;;31.90;99.90;;;;;;5031903;28;20033;-73
2022/09/03 10:28:24;;;;;;;6.50;1.85;;;32.00;99.90;;;;;;5031463;28;20042;-73
2022/09/03 10:31:21;;;;;;;12.05;2.28;;;31.90;99.90;;;;;;5031761;28;20547;-73
2022/09/03 10:34:12;;;;;;;9.02;2.20;;;31.90;99.90;;;;;;5032882;28;20029;-73
2022/09/03 10:37:06;;;;;;;8.07;2.00;;;32.00;99.90;;;;;;5035659;28;20021;-72
2022/09/03 10:40:02;;;;;;;7.80;2.78;;;31.70;99.90;;;;;;5035838;28;20018;-73
2022/09/03 10:42:58;;;;;;;8.98;2.00;;;31.80;99.90;;;;;;5034796;28;20053;-73
2022/09/03 10:45:44;;;;;;;8.18;1.85;;;32.00;99.90;;;;;;5035549;28;20025;-72
2022/09/03 10:48:22;;;;;;;8.40;2.05;;;32.10;99.90;;;;;;5035303;28;20029;-73
2022/09/03 10:50:57;;;;;;;8.45;2.10;;;32.20;99.90;;;;;;5035125;28;20033;-73
2022/09/03 10:53:48;;;;;;;7.15;2.08;;;32.30;99.90;;;;;;5035346;28;20025;-73
2022/09/03 10:56:39;;;;;;;6.93;2.00;;;32.60;99.90;;;;;;5035608;28;20036;-73
2022/09/03 10:59:26;;;;;;;9.18;2.05;;;32.70;99.90;;;;;;5035882;28;20018;-73
2022/09/03 11:02:19;;;;;;;8.70;2.75;;;32.60;99.90;;;;;;5035834;28;20473;-73
2022/09/03 11:05:06;;;;;;;10.48;2.45;;;32.40;99.90;;;;;;5035336;28;20076;-73
2022/09/03 11:07:57;;;;;;;6.57;2.05;;;32.30;99.90;;;;;;5035315;28;20022;-73
2022/09/03 11:10:43;;;;;;;8.75;2.00;;;32.00;99.90;;;;;;5015463;28;20040;-73
2022/09/03 11:13:19;;;;;;;14.80;2.25;;;31.90;99.90;;;;;;5035167;28;20065;-73
2022/09/03 11:15:55;;;;;;;10.30;2.05;;;32.00;99.90;;;;;;5035530;28;20061;-73
2022/09/03 11:18:29;;;;;;;9.00;1.80;;;32.00;99.90;;;;;;5035323;28;20021;-73
2022/09/03 11:21:03;;;;;;;9.18;2.15;;;32.20;99.90;;;;;;5035454;28;20052;-73
2022/09/03 11:23:35;;;;;;;9.30;2.10;;;32.40;99.90;;;;;;5035061;28;20059;-73
2022/09/03 11:26:06;;;;;;;13.70;2.28;;;32.50;99.90;;;;;;5035081;28;20493;-73
2022/09/03 11:28:35;;;;;;;8.00;2.17;;;32.30;99.90;;;;;;5035186;28;20033;-73
2022/09/03 11:31:24;;;;;;;10.13;2.17;;;32.10;99.90;;;;;;5035086;28;20389;-73
2022/09/03 11:34:05;;;;;;;8.32;2.00;;;32.10;99.90;;;;;;5031315;28;20207;-73
2022/09/03 11:36:35;;;;;;;10.00;2.45;;;32.30;99.90;;;;;;5035034;28;20033;-73
2022/09/03 11:39:32;;;;;;;10.48;2.05;;;32.50;99.90;;;;;;5034916;28;20075;-73
2022/09/03 11:42:11;;;;;;;9.50;1.85;;;32.60;99.90;;;;;;5035069;28;20354;-73
2022/09/03 11:44:40;;;;;;;8.23;2.00;;;32.60;99.90;;;;;;5034550;28;20021;-73
2022/09/03 11:47:20;;;;;;;7.78;2.00;;;32.80;99.90;;;;;;5033097;28;20033;-73
2022/09/03 11:49:49;;;;;;;9.35;2.10;;;33.00;99.90;;;;;;5035211;28;20093;-73
2022/09/03 11:52:31;;;;;;;12.18;2.30;;;33.00;99.90;;;;;;5034420;28;20021;-73
2022/09/03 11:54:57;;;;;;;7.28;1.67;;;32.90;99.90;;;;;;5034477;28;20037;-73
2022/09/03 11:57:28;;;;;;;8.50;1.77;;;32.90;99.90;;;;;;5034170;28;20048;-73
2022/09/03 12:00:10;;;;;;;6.57;1.77;;;33.10;99.90;;;;;;5034161;28;20473;-73
2022/09/03 12:02:37;;;;;;;8.90;1.90;;;33.20;99.90;;;;;;5034049;28;20030;-73
2022/09/03 12:05:04;;;;;;;11.27;2.67;;;33.40;99.90;;;;;;5034075;28;20026;-72
2022/09/03 12:07:37;;;;;;;9.98;2.53;;;33.20;99.90;;;;;;5032725;28;20424;-72
2022/09/03 12:10:23;;;;;;;8.73;2.38;;;33.20;99.90;;;;;;5033939;28;20061;-74
2022/09/03 12:13:15;;;;;;;5.82;2.00;;;33.30;99.90;;;;;;5034441;28;20025;-72
2022/09/03 12:16:18;;;;;;;8.43;2.70;;;32.80;99.90;;;;;;5034554;28;20481;-73
2022/09/03 12:18:48;;;;;;;6.45;2.10;;;32.60;99.90;;;;;;5034346;28;20025;-73
2022/09/03 12:21:16;;;;;;;9.55;2.33;;;32.80;99.90;;;;;;5034219;28;20025;-72
2022/09/03 12:23:46;;;;;;;15.93;2.65;;;32.90;99.90;;;;;;5033981;28;20021;-72
2022/09/03 12:26:18;;;;;;;9.68;2.10;;;32.80;99.90;;;;;;5034381;28;20026;-73
2022/09/03 12:28:49;;;;;;;9.25;1.98;;;32.70;99.90;;;;;;5033582;28;20442;-73
2022/09/03 12:31:24;;;;;;;7.75;2.20;;;32.30;99.90;;;;;;5034256;28;20025;-72
2022/09/03 12:33:59;;;;;;;6.35;2.10;;;32.40;99.90;;;;;;5034116;28;20033;-72
2022/09/03 12:36:35;;;;;;;8.82;2.13;;;32.50;99.90;;;;;;5034150;28;20060;-72
2022/09/03 12:39:15;;;;;;;8.05;2.30;;;32.60;99.90;;;;;;5034082;28;20021;-73
2022/09/03 12:42:00;;;;;;;7.97;2.15;;;32.70;99.90;;;;;;5034054;28;20036;-72
2022/09/03 12:44:34;;;;;;;7.53;2.27;;;32.60;99.90;;;;;;5033651;28;20029;-72
2022/09/03 12:47:18;;;;;;;10.82;2.30;;;32.20;99.90;;;;;;5032329;28;20268;-72
2022/09/03 12:49:47;;;;;;;7.63;2.33;;;32.30;99.90;;;;;;5033523;28;20033;-73
2022/09/03 12:52:19;;;;;;;9.05;2.58;;;32.30;99.90;;;;;;5034090;28;20032;-72
2022/09/03 12:54:57;;;;;;;10.63;2.80;;;32.40;99.90;;;;;;5033912;28;20037;-73
2022/09/03 12:57:31;;;;;;;8.43;2.10;;;32.20;99.90;;;;;;5032792;28;20030;-74
2022/09/03 13:00:03;;;;;;;9.82;2.17;;;32.20;99.90;;;;;;5033720;28;20445;-72
2022/09/03 13:02:46;;;;;;;10.00;2.80;;;32.20;99.90;;;;;;5033641;28;20026;-72
2022/09/03 13:05:19;;;;;;;9.20;2.10;;;32.20;99.90;;;;;;5033216;28;20029;-72
2022/09/03 13:07:53;;;;;;;9.68;2.50;;;32.10;99.90;;;;;;5033763;28;20022;-72
2022/09/03 13:10:41;;;;;;;9.55;2.70;;;32.20;99.90;;;;;;5032548;28;20101;-72
2022/09/03 13:13:19;;;;;;;8.80;2.10;;;32.40;99.90;;;;;;5033460;28;20048;-72
2022/09/03 13:16:18;;;;;;;7.55;2.20;;;32.40;99.90;;;;;;5032988;28;20041;-72
2022/09/03 13:19:03;;;;;;;11.38;2.33;;;32.10;99.90;;;;;;5033467;28;20036;-72
2022/09/03 13:22:19;;;;;;;12.07;2.50;;;32.20;99.90;;;;;;5033259;28;20028;-72
2022/09/03 13:24:59;;;;;;;11.88;2.20;;;32.30;99.90;;;;;;5009677;28;20057;-72
2022/09/03 13:27:30;;;;;;;11.68;2.67;;;32.10;99.90;;;;;;5033294;28;20025;-71
2022/09/03 13:29:56;;;;;;;10.15;2.85;;;32.30;99.90;;;;;;5033306;28;20037;-72
2022/09/03 13:32:38;;;;;;;9.25;1.92;;;32.40;99.90;;;;;;5032785;28;20028;-72
2022/09/03 13:35:40;;;;;;;7.28;2.25;;;32.60;99.90;;;;;;5033198;28;20029;-72